ロサンゼルス の空港の天気 - METARとTAF

ロサンゼルス国際空港 ( KLAX / LAX ) - アメリカ カリフォルニア州ロサンゼルス
飛行場実況気象(Metar)
観測時間10/22 07:53 PDT (10/22 14:53 UTC)
風向・風速不定 2m/s
視程10km以上
天気現象
全天を覆う雲 雲底高度 790m
気温19.4℃
湿度68%
気圧1010.9hPa
METARKLAX 221453Z VRB03KT 10SM OVC026 19/13 A2986 RMK AO2 SLP109 T01940133 53006
過去の天気等 Google飛行場航空写真 Wunderground天気予報

過去48時間のMETAR

飛行場予報(TAF)
発表時間: 10/22 04:24 PDT (10/22 11:24 UTC)
予報対象時間: 22日5時 PDT ~ 23日11時 PDT
風向・風速不定 2m/s
視程10km以上
全天を覆う雲 雲底高度 610m
22日15時 PDT から
風向・風速西南西 5m/s
視程10km以上
全天の8割程度の雲 雲底高度 760m
22日18時 PDT から
風向・風速西 3m/s
視程10km以上
全天を覆う雲 雲底高度 460m
22日20時 PDT から
風向・風速西南西 2m/s
視程10km以上
全天を覆う雲 雲底高度 610m
23日1時 PDT から
風向・風速不定 2m/s
視程10km以上
全天を覆う雲 雲底高度 760m
23日10時 PDT から
風向・風速南南西 3m/s
視程10km以上
全天の8割程度の雲 雲底高度 910m
KLAX 221124Z 2212/2318 VRB03KT P6SM OVC020
FM222200 25010KT P6SM BKN025
FM230130 26005KT P6SM OVC015
FM230300 25004KT P6SM OVC020
FM230800 VRB03KT P6SM OVC025
FM231700 20006KT P6SM BKN030